Pencaitland, United Kingdom
Current Conditions -  °F | °C
As of 12:50 PM on Tuesday 21 Oct 2014 (Local Time) from EGPH Reporting Station
Few Clouds Few Clouds  
Wind Chill: 50°   Ceiling: Unl
Heat Index: 50°   Visibility: 6mi
Dew Point: 36°   Wind: 20mph
Humidity: 58%   Direction: 280°W
Pressure: 29.44"   Gusts: 32mph
Location:  55.91°N, 2.89°W
Report Text: EGPH 211150Z 28017G28KT 9999 FEW038 10/02 Q0997
Loading
Personal Weather Stations






























Interactive Weather Map
Tropical Storm Tracking
New forecast layout! Learn more

10-Day Weather Forecast

Advertisements
Track Severe Weather on mobile